sensor_id;sensor_type;location;lat;lon;timestamp;pressure;altitude;pressure_sealevel;temperature;humidity
60258;BME280;46115;44.484;11.314;2023-12-29T00:02:47;101150.66;;;8.88;93.12
60258;BME280;46115;44.484;11.314;2023-12-29T00:06:49;101148.41;;;9.03;91.28
60258;BME280;46115;44.484;11.314;2023-12-29T00:10:53;101148.25;;;8.80;92.33
60258;BME280;46115;44.484;11.314;2023-12-29T00:14:55;101159.72;;;8.50;93.17
60258;BME280;46115;44.484;11.314;2023-12-29T00:18:57;101145.81;;;8.44;94.06
60258;BME280;46115;44.484;11.314;2023-12-29T00:23:00;101142.28;;;8.46;94.10
60258;BME280;46115;44.484;11.314;2023-12-29T00:27:03;101131.78;;;8.44;93.46
60258;BME280;46115;44.484;11.314;2023-12-29T00:31:06;101123.25;;;8.36;94.32
60258;BME280;46115;44.484;11.314;2023-12-29T00:35:08;101104.38;;;8.19;95.26
60258;BME280;46115;44.484;11.314;2023-12-29T00:39:11;101110.78;;;8.10;95.60
60258;BME280;46115;44.484;11.314;2023-12-29T00:43:14;101107.09;;;8.47;93.48
60258;BME280;46115;44.484;11.314;2023-12-29T00:47:17;101125.38;;;8.53;92.43
60258;BME280;46115;44.484;11.314;2023-12-29T00:51:20;101109.94;;;8.40;92.26
60258;BME280;46115;44.484;11.314;2023-12-29T00:55:22;101122.69;;;8.23;93.30
60258;BME280;46115;44.484;11.314;2023-12-29T00:59:26;101116.25;;;8.35;93.19
60258;BME280;46115;44.484;11.314;2023-12-29T01:03:28;101116.16;;;8.38;91.87
60258;BME280;46115;44.484;11.314;2023-12-29T01:07:31;101109.66;;;8.50;92.47
60258;BME280;46115;44.484;11.314;2023-12-29T01:11:33;101118.84;;;8.64;91.55
60258;BME280;46115;44.484;11.314;2023-12-29T01:15:37;101105.59;;;8.67;91.50
60258;BME280;46115;44.484;11.314;2023-12-29T01:19:42;101092.94;;;8.51;91.34
60258;BME280;46115;44.484;11.314;2023-12-29T01:23:45;101107.13;;;8.74;90.99
60258;BME280;46115;44.484;11.314;2023-12-29T01:27:47;101112.41;;;9.02;89.42
60258;BME280;46115;44.484;11.314;2023-12-29T01:31:51;101117.69;;;9.02;88.84
60258;BME280;46115;44.484;11.314;2023-12-29T01:35:53;101123.31;;;8.90;89.63
60258;BME280;46115;44.484;11.314;2023-12-29T01:39:55;101120.03;;;8.84;89.58
60258;BME280;46115;44.484;11.314;2023-12-29T01:44:17;101109.47;;;9.12;88.64
60258;BME280;46115;44.484;11.314;2023-12-29T01:48:24;101117.94;;;9.21;87.79
60258;BME280;46115;44.484;11.314;2023-12-29T01:52:26;101110.66;;;9.01;88.42
60258;BME280;46115;44.484;11.314;2023-12-29T01:56:29;101111.19;;;9.13;88.31
60258;BME280;46115;44.484;11.314;2023-12-29T02:00:33;101110.53;;;9.06;88.22
60258;BME280;46115;44.484;11.314;2023-12-29T02:04:38;101104.94;;;9.15;88.21
60258;BME280;46115;44.484;11.314;2023-12-29T02:08:42;101106.72;;;9.15;88.47
60258;BME280;46115;44.484;11.314;2023-12-29T02:12:46;101105.53;;;9.23;88.27
60258;BME280;46115;44.484;11.314;2023-12-29T02:16:58;101093.75;;;9.33;87.52
60258;BME280;46115;44.484;11.314;2023-12-29T02:21:05;101088.34;;;9.38;87.33
60258;BME280;46115;44.484;11.314;2023-12-29T02:25:09;101090.78;;;9.44;87.33
60258;BME280;46115;44.484;11.314;2023-12-29T02:29:14;101088.78;;;9.51;86.91
60258;BME280;46115;44.484;11.314;2023-12-29T02:33:21;101094.31;;;9.93;84.89
60258;BME280;46115;44.484;11.314;2023-12-29T02:37:24;101088.00;;;10.22;83.03
60258;BME280;46115;44.484;11.314;2023-12-29T02:41:29;101086.22;;;9.97;84.44
60258;BME280;46115;44.484;11.314;2023-12-29T02:45:32;101084.38;;;9.76;85.65
60258;BME280;46115;44.484;11.314;2023-12-29T02:49:34;101075.09;;;9.64;86.18
60258;BME280;46115;44.484;11.314;2023-12-29T02:53:38;101082.94;;;9.66;85.85
60258;BME280;46115;44.484;11.314;2023-12-29T02:57:42;101086.00;;;10.04;83.86
60258;BME280;46115;44.484;11.314;2023-12-29T03:01:44;101058.84;;;10.47;81.96
60258;BME280;46115;44.484;11.314;2023-12-29T03:05:47;101066.44;;;10.32;82.37
60258;BME280;46115;44.484;11.314;2023-12-29T03:09:50;101064.41;;;10.39;82.06
60258;BME280;46115;44.484;11.314;2023-12-29T03:13:54;101059.66;;;10.49;82.35
60258;BME280;46115;44.484;11.314;2023-12-29T03:17:57;101049.38;;;10.63;81.54
60258;BME280;46115;44.484;11.314;2023-12-29T03:21:59;101050.34;;;10.15;83.54
60258;BME280;46115;44.484;11.314;2023-12-29T03:26:01;101048.06;;;10.29;83.55
60258;BME280;46115;44.484;11.314;2023-12-29T03:30:07;101051.66;;;10.04;83.88
60258;BME280;46115;44.484;11.314;2023-12-29T03:34:09;101041.88;;;10.52;82.60
60258;BME280;46115;44.484;11.314;2023-12-29T03:38:13;101036.38;;;10.80;81.07
60258;BME280;46115;44.484;11.314;2023-12-29T03:42:16;101036.09;;;10.19;83.11
60258;BME280;46115;44.484;11.314;2023-12-29T03:46:20;101042.13;;;9.76;86.05
60258;BME280;46115;44.484;11.314;2023-12-29T03:50:23;101031.56;;;9.76;85.07
60258;BME280;46115;44.484;11.314;2023-12-29T03:54:26;101019.44;;;9.94;85.22
60258;BME280;46115;44.484;11.314;2023-12-29T03:58:28;101019.28;;;10.22;85.78
60258;BME280;46115;44.484;11.314;2023-12-29T04:02:31;101021.81;;;9.78;87.89
60258;BME280;46115;44.484;11.314;2023-12-29T04:06:34;101015.88;;;9.95;86.96
60258;BME280;46115;44.484;11.314;2023-12-29T04:10:36;101009.59;;;9.76;87.36
60258;BME280;46115;44.484;11.314;2023-12-29T04:14:38;101011.69;;;9.89;87.21
60258;BME280;46115;44.484;11.314;2023-12-29T04:18:42;101015.03;;;10.18;85.65
60258;BME280;46115;44.484;11.314;2023-12-29T04:22:46;101013.41;;;9.67;88.44
60258;BME280;46115;44.484;11.314;2023-12-29T04:26:48;101002.41;;;9.79;87.04
60258;BME280;46115;44.484;11.314;2023-12-29T04:30:51;100996.78;;;9.15;88.15
60258;BME280;46115;44.484;11.314;2023-12-29T04:34:54;100993.88;;;9.23;87.00
60258;BME280;46115;44.484;11.314;2023-12-29T04:38:57;100994.91;;;9.19;86.34
60258;BME280;46115;44.484;11.314;2023-12-29T04:42:59;100997.94;;;9.08;86.27
60258;BME280;46115;44.484;11.314;2023-12-29T04:47:01;100996.38;;;9.02;85.70
60258;BME280;46115;44.484;11.314;2023-12-29T04:51:05;100986.31;;;8.87;86.69
60258;BME280;46115;44.484;11.314;2023-12-29T04:55:08;100993.47;;;9.10;85.35
60258;BME280;46115;44.484;11.314;2023-12-29T04:59:10;100991.66;;;8.86;85.49
60258;BME280;46115;44.484;11.314;2023-12-29T05:03:13;100993.53;;;8.82;86.09
60258;BME280;46115;44.484;11.314;2023-12-29T05:07:16;100996.13;;;8.84;84.80
60258;BME280;46115;44.484;11.314;2023-12-29T05:11:19;100999.56;;;8.86;84.29
60258;BME280;46115;44.484;11.314;2023-12-29T05:15:21;100996.69;;;8.65;84.90
60258;BME280;46115;44.484;11.314;2023-12-29T05:19:23;100990.66;;;8.35;86.48
60258;BME280;46115;44.484;11.314;2023-12-29T05:23:27;100990.91;;;7.98;88.73
60258;BME280;46115;44.484;11.314;2023-12-29T05:27:30;100991.28;;;8.14;88.16
60258;BME280;46115;44.484;11.314;2023-12-29T05:31:32;100986.44;;;8.28;86.28
60258;BME280;46115;44.484;11.314;2023-12-29T05:35:35;100981.66;;;7.83;88.75
60258;BME280;46115;44.484;11.314;2023-12-29T05:39:41;100982.53;;;7.84;89.60
60258;BME280;46115;44.484;11.314;2023-12-29T05:43:44;100984.63;;;8.02;87.57
60258;BME280;46115;44.484;11.314;2023-12-29T05:47:46;100992.25;;;7.82;88.17
60258;BME280;46115;44.484;11.314;2023-12-29T05:51:49;100982.66;;;7.79;87.23
60258;BME280;46115;44.484;11.314;2023-12-29T05:55:53;100989.34;;;7.60;88.94
60258;BME280;46115;44.484;11.314;2023-12-29T05:59:55;100992.06;;;7.57;88.92
60258;BME280;46115;44.484;11.314;2023-12-29T06:03:58;101002.69;;;7.54;89.93
60258;BME280;46115;44.484;11.314;2023-12-29T06:08:01;100999.28;;;7.50;90.17
60258;BME280;46115;44.484;11.314;2023-12-29T06:12:05;101000.28;;;7.46;88.71
60258;BME280;46115;44.484;11.314;2023-12-29T06:16:08;100993.50;;;7.38;90.64
60258;BME280;46115;44.484;11.314;2023-12-29T06:20:11;100998.72;;;7.39;90.71
60258;BME280;46115;44.484;11.314;2023-12-29T06:24:13;100991.06;;;7.32;91.42
60258;BME280;46115;44.484;11.314;2023-12-29T06:28:18;100992.56;;;7.40;91.33
60258;BME280;46115;44.484;11.314;2023-12-29T06:32:20;100998.38;;;7.51;89.95
60258;BME280;46115;44.484;11.314;2023-12-29T06:36:24;101002.31;;;7.68;90.67
60258;BME280;46115;44.484;11.314;2023-12-29T06:40:26;100992.19;;;7.22;92.23
60258;BME280;46115;44.484;11.314;2023-12-29T06:44:31;100993.63;;;7.33;91.60
60258;BME280;46115;44.484;11.314;2023-12-29T06:48:33;100996.28;;;7.33;92.10
60258;BME280;46115;44.484;11.314;2023-12-29T06:52:36;100992.69;;;7.36;91.43
60258;BME280;46115;44.484;11.314;2023-12-29T06:56:38;101000.63;;;7.34;91.37
60258;BME280;46115;44.484;11.314;2023-12-29T07:00:42;101001.75;;;7.24;90.04
60258;BME280;46115;44.484;11.314;2023-12-29T07:04:45;101006.44;;;7.13;89.57
60258;BME280;46115;44.484;11.314;2023-12-29T07:08:47;101020.94;;;7.29;88.91
60258;BME280;46115;44.484;11.314;2023-12-29T07:12:50;101007.69;;;7.00;90.53
60258;BME280;46115;44.484;11.314;2023-12-29T07:16:54;101013.03;;;7.28;90.95
60258;BME280;46115;44.484;11.314;2023-12-29T07:20:56;101021.03;;;7.25;91.49
60258;BME280;46115;44.484;11.314;2023-12-29T07:24:59;101028.56;;;7.38;91.35
60258;BME280;46115;44.484;11.314;2023-12-29T07:29:01;101020.41;;;7.47;92.06
60258;BME280;46115;44.484;11.314;2023-12-29T07:33:06;101018.75;;;7.45;92.00
60258;BME280;46115;44.484;11.314;2023-12-29T07:37:08;101026.38;;;7.22;94.11
60258;BME280;46115;44.484;11.314;2023-12-29T07:41:11;101027.84;;;7.64;93.91
60258;BME280;46115;44.484;11.314;2023-12-29T07:45:13;101037.56;;;7.61;92.76
60258;BME280;46115;44.484;11.314;2023-12-29T07:49:17;101043.44;;;7.72;94.33
60258;BME280;46115;44.484;11.314;2023-12-29T07:53:20;101040.47;;;7.82;95.42
60258;BME280;46115;44.484;11.314;2023-12-29T07:57:22;101044.28;;;8.31;93.79
60258;BME280;46115;44.484;11.314;2023-12-29T08:01:25;101043.56;;;8.84;92.85
60258;BME280;46115;44.484;11.314;2023-12-29T08:05:29;101054.94;;;9.12;91.27
60258;BME280;46115;44.484;11.314;2023-12-29T08:09:32;101063.31;;;9.50;88.01
60258;BME280;46115;44.484;11.314;2023-12-29T08:13:35;101057.38;;;9.43;85.32
60258;BME280;46115;44.484;11.314;2023-12-29T08:17:37;101061.19;;;9.84;84.03
60258;BME280;46115;44.484;11.314;2023-12-29T08:21:41;101058.16;;;10.18;83.40
60258;BME280;46115;44.484;11.314;2023-12-29T08:25:44;101060.16;;;10.35;82.82
60258;BME280;46115;44.484;11.314;2023-12-29T08:29:47;101060.81;;;10.42;83.72
60258;BME280;46115;44.484;11.314;2023-12-29T08:33:50;101067.31;;;11.20;79.60
60258;BME280;46115;44.484;11.314;2023-12-29T08:37:53;101068.31;;;11.99;76.91
60258;BME280;46115;44.484;11.314;2023-12-29T08:41:56;101073.03;;;11.93;75.03
60258;BME280;46115;44.484;11.314;2023-12-29T08:45:58;101074.13;;;12.45;73.56
60258;BME280;46115;44.484;11.314;2023-12-29T08:50:01;101085.53;;;13.02;72.16
60258;BME280;46115;44.484;11.314;2023-12-29T08:54:05;101093.56;;;15.62;64.02
60258;BME280;46115;44.484;11.314;2023-12-29T08:58:08;101081.13;;;13.89;68.46
60258;BME280;46115;44.484;11.314;2023-12-29T09:02:10;101102.22;;;16.65;60.67
60258;BME280;46115;44.484;11.314;2023-12-29T09:06:12;101117.97;;;17.77;56.09
60258;BME280;46115;44.484;11.314;2023-12-29T09:10:17;101112.03;;;18.74;53.10
60258;BME280;46115;44.484;11.314;2023-12-29T09:14:19;101122.00;;;19.43;51.24
60258;BME280;46115;44.484;11.314;2023-12-29T09:18:22;101126.94;;;19.96;49.41
60258;BME280;46115;44.484;11.314;2023-12-29T09:22:24;101121.78;;;18.62;52.54
60258;BME280;46115;44.484;11.314;2023-12-29T09:26:28;101122.47;;;16.40;57.78
60258;BME280;46115;44.484;11.314;2023-12-29T09:30:30;101114.16;;;16.45;58.22
60258;BME280;46115;44.484;11.314;2023-12-29T09:34:32;101124.94;;;16.15;58.75
60258;BME280;46115;44.484;11.314;2023-12-29T09:38:35;101121.72;;;15.20;60.73
60258;BME280;46115;44.484;11.314;2023-12-29T09:42:42;101112.00;;;15.19;62.02
60258;BME280;46115;44.484;11.314;2023-12-29T09:46:48;101108.22;;;15.39;62.07
60258;BME280;46115;44.484;11.314;2023-12-29T09:50:52;101109.81;;;15.41;61.69
60258;BME280;46115;44.484;11.314;2023-12-29T09:54:54;101105.22;;;15.29;62.05
60258;BME280;46115;44.484;11.314;2023-12-29T09:58:59;101110.22;;;15.19;62.24
60258;BME280;46115;44.484;11.314;2023-12-29T10:03:01;101098.75;;;14.56;63.94
60258;BME280;46115;44.484;11.314;2023-12-29T10:07:04;101095.06;;;14.43;64.48
60258;BME280;46115;44.484;11.314;2023-12-29T10:11:10;101068.19;;;14.79;62.75
60258;BME280;46115;44.484;11.314;2023-12-29T10:15:17;101093.88;;;14.95;63.07
60258;BME280;46115;44.484;11.314;2023-12-29T10:19:27;101085.19;;;14.45;64.35
60258;BME280;46115;44.484;11.314;2023-12-29T10:23:37;101090.41;;;14.46;63.96
60258;BME280;46115;44.484;11.314;2023-12-29T10:27:40;101082.75;;;14.40;64.78
60258;BME280;46115;44.484;11.314;2023-12-29T10:31:45;101089.72;;;13.42;68.06
60258;BME280;46115;44.484;11.314;2023-12-29T10:35:56;101073.03;;;14.23;65.81
60258;BME280;46115;44.484;11.314;2023-12-29T10:39:59;101068.59;;;14.40;65.14
60258;BME280;46115;44.484;11.314;2023-12-29T10:44:06;101052.53;;;14.41;65.33
60258;BME280;46115;44.484;11.314;2023-12-29T10:48:10;101046.13;;;14.29;65.79
60258;BME280;46115;44.484;11.314;2023-12-29T10:52:13;101046.22;;;13.95;67.29
60258;BME280;46115;44.484;11.314;2023-12-29T10:56:19;101030.81;;;14.17;66.88
60258;BME280;46115;44.484;11.314;2023-12-29T11:00:29;101029.78;;;14.20;66.62
60258;BME280;46115;44.484;11.314;2023-12-29T11:04:33;101020.81;;;14.38;66.05
60258;BME280;46115;44.484;11.314;2023-12-29T11:08:35;101022.88;;;14.33;66.36
60258;BME280;46115;44.484;11.314;2023-12-29T11:12:38;101011.50;;;13.98;68.15
60258;BME280;46115;44.484;11.314;2023-12-29T11:16:41;101003.78;;;14.09;68.04
60258;BME280;46115;44.484;11.314;2023-12-29T11:20:47;101000.19;;;14.10;67.73
60258;BME280;46115;44.484;11.314;2023-12-29T11:24:50;101002.78;;;14.27;67.55
60258;BME280;46115;44.484;11.314;2023-12-29T11:28:53;100995.09;;;13.74;69.93
60258;BME280;46115;44.484;11.314;2023-12-29T11:32:59;100981.94;;;13.88;70.30
60258;BME280;46115;44.484;11.314;2023-12-29T11:37:22;100974.25;;;13.49;71.69
60258;BME280;46115;44.484;11.314;2023-12-29T11:41:33;100962.75;;;13.66;71.94
60258;BME280;46115;44.484;11.314;2023-12-29T11:45:39;100959.84;;;13.70;71.45
60258;BME280;46115;44.484;11.314;2023-12-29T11:50:01;100949.56;;;13.80;71.08
60258;BME280;46115;44.484;11.314;2023-12-29T11:54:06;100955.31;;;13.72;71.66
60258;BME280;46115;44.484;11.314;2023-12-29T11:58:24;100920.16;;;13.67;71.53
60258;BME280;46115;44.484;11.314;2023-12-29T12:02:29;100939.88;;;13.79;71.87
60258;BME280;46115;44.484;11.314;2023-12-29T12:06:38;100910.16;;;13.88;71.34
60258;BME280;46115;44.484;11.314;2023-12-29T12:10:42;100924.81;;;13.95;71.23
60258;BME280;46115;44.484;11.314;2023-12-29T12:14:49;100921.81;;;14.01;70.61
60258;BME280;46115;44.484;11.314;2023-12-29T12:18:52;100911.09;;;14.03;71.05
60258;BME280;46115;44.484;11.314;2023-12-29T12:22:57;100915.38;;;13.58;72.41
60258;BME280;46115;44.484;11.314;2023-12-29T12:27:02;100902.50;;;13.66;72.92
60258;BME280;46115;44.484;11.314;2023-12-29T12:31:05;100902.19;;;13.88;71.72
60258;BME280;46115;44.484;11.314;2023-12-29T12:35:14;100899.78;;;13.84;72.10
60258;BME280;46115;44.484;11.314;2023-12-29T12:39:17;100898.06;;;13.83;72.50
60258;BME280;46115;44.484;11.314;2023-12-29T12:43:23;100899.00;;;13.66;72.94
60258;BME280;46115;44.484;11.314;2023-12-29T12:47:32;100891.59;;;14.18;70.95
60258;BME280;46115;44.484;11.314;2023-12-29T12:51:36;100887.78;;;13.77;72.10
60258;BME280;46115;44.484;11.314;2023-12-29T12:55:39;100888.97;;;13.87;71.89
60258;BME280;46115;44.484;11.314;2023-12-29T12:59:43;100878.78;;;13.79;71.89
60258;BME280;46115;44.484;11.314;2023-12-29T13:03:45;100850.06;;;14.01;70.04
60258;BME280;46115;44.484;11.314;2023-12-29T13:07:48;100878.97;;;13.92;71.44
60258;BME280;46115;44.484;11.314;2023-12-29T13:11:50;100876.03;;;13.81;72.50
60258;BME280;46115;44.484;11.314;2023-12-29T13:15:54;100878.44;;;14.01;71.77
60258;BME280;46115;44.484;11.314;2023-12-29T13:19:57;100877.22;;;13.75;72.92
60258;BME280;46115;44.484;11.314;2023-12-29T13:24:03;100872.41;;;14.13;71.96
60258;BME280;46115;44.484;11.314;2023-12-29T13:28:06;100876.50;;;14.19;71.32
60258;BME280;46115;44.484;11.314;2023-12-29T13:32:14;100876.72;;;13.68;73.59
60258;BME280;46115;44.484;11.314;2023-12-29T13:36:23;100878.16;;;13.74;73.79
60258;BME280;46115;44.484;11.314;2023-12-29T13:40:36;100872.44;;;13.66;74.21
60258;BME280;46115;44.484;11.314;2023-12-29T13:44:41;100877.25;;;13.91;73.75
60258;BME280;46115;44.484;11.314;2023-12-29T13:48:46;100881.25;;;13.66;74.06
60258;BME280;46115;44.484;11.314;2023-12-29T13:52:52;100874.50;;;13.10;75.80
60258;BME280;46115;44.484;11.314;2023-12-29T13:56:55;100876.66;;;13.21;76.15
60258;BME280;46115;44.484;11.314;2023-12-29T14:00:58;100869.56;;;12.87;78.48
60258;BME280;46115;44.484;11.314;2023-12-29T14:05:14;100873.50;;;13.46;76.61
60258;BME280;46115;44.484;11.314;2023-12-29T14:09:20;100882.91;;;14.00;74.18
60258;BME280;46115;44.484;11.314;2023-12-29T14:13:23;100880.50;;;13.96;74.18
60258;BME280;46115;44.484;11.314;2023-12-29T14:17:26;100884.09;;;13.79;74.86
60258;BME280;46115;44.484;11.314;2023-12-29T14:21:32;100880.38;;;14.13;74.23
60258;BME280;46115;44.484;11.314;2023-12-29T14:25:35;100859.53;;;14.21;73.24
60258;BME280;46115;44.484;11.314;2023-12-29T14:29:40;100882.38;;;14.10;73.92
60258;BME280;46115;44.484;11.314;2023-12-29T14:33:43;100888.59;;;14.40;72.63
60258;BME280;46115;44.484;11.314;2023-12-29T14:37:47;100889.78;;;14.50;72.42
60258;BME280;46115;44.484;11.314;2023-12-29T14:41:50;100889.19;;;14.45;71.33
60258;BME280;46115;44.484;11.314;2023-12-29T14:45:54;100887.69;;;14.25;71.80
60258;BME280;46115;44.484;11.314;2023-12-29T14:49:56;100884.00;;;14.28;71.60
60258;BME280;46115;44.484;11.314;2023-12-29T14:54:00;100881.81;;;14.50;70.15
60258;BME280;46115;44.484;11.314;2023-12-29T14:58:04;100882.94;;;14.30;70.80
60258;BME280;46115;44.484;11.314;2023-12-29T15:02:06;100874.28;;;14.27;71.30
60258;BME280;46115;44.484;11.314;2023-12-29T15:06:09;100870.84;;;13.46;73.68
60258;BME280;46115;44.484;11.314;2023-12-29T15:10:13;100865.16;;;13.69;73.04
60258;BME280;46115;44.484;11.314;2023-12-29T15:14:15;100867.84;;;14.15;71.35
60258;BME280;46115;44.484;11.314;2023-12-29T15:18:17;100865.13;;;13.85;72.72
60258;BME280;46115;44.484;11.314;2023-12-29T15:22:20;100853.25;;;13.61;73.86
60258;BME280;46115;44.484;11.314;2023-12-29T15:26:28;100866.72;;;13.89;72.30
60258;BME280;46115;44.484;11.314;2023-12-29T15:30:31;100859.91;;;13.99;71.38
60258;BME280;46115;44.484;11.314;2023-12-29T15:34:33;100854.44;;;13.71;72.39
60258;BME280;46115;44.484;11.314;2023-12-29T15:38:35;100859.53;;;13.42;73.42
60258;BME280;46115;44.484;11.314;2023-12-29T15:42:39;100859.50;;;13.76;72.59
60258;BME280;46115;44.484;11.314;2023-12-29T15:46:41;100855.16;;;13.08;74.67
60258;BME280;46115;44.484;11.314;2023-12-29T15:50:44;100860.50;;;12.74;75.77
60258;BME280;46115;44.484;11.314;2023-12-29T15:54:47;100853.25;;;12.77;76.18
60258;BME280;46115;44.484;11.314;2023-12-29T15:58:50;100840.47;;;12.68;76.62
60258;BME280;46115;44.484;11.314;2023-12-29T23:06:08;100799.97;;;10.44;84.91
60258;BME280;46115;44.484;11.314;2023-12-29T23:10:11;100796.38;;;10.65;83.62
60258;BME280;46115;44.484;11.314;2023-12-29T23:14:13;100797.63;;;10.77;83.15
60258;BME280;46115;44.484;11.314;2023-12-29T23:18:18;100782.44;;;10.61;83.56
60258;BME280;46115;44.484;11.314;2023-12-29T23:22:22;100792.00;;;11.03;81.42
60258;BME280;46115;44.484;11.314;2023-12-29T23:26:24;100785.63;;;11.07;81.38
60258;BME280;46115;44.484;11.314;2023-12-29T23:30:27;100783.28;;;10.82;81.86
60258;BME280;46115;44.484;11.314;2023-12-29T23:34:29;100785.69;;;10.87;81.84
60258;BME280;46115;44.484;11.314;2023-12-29T23:38:33;100777.97;;;10.82;83.13
60258;BME280;46115;44.484;11.314;2023-12-29T23:42:35;100790.59;;;11.15;80.53
60258;BME280;46115;44.484;11.314;2023-12-29T23:46:38;100777.69;;;11.07;81.31
60258;BME280;46115;44.484;11.314;2023-12-29T23:50:41;100775.13;;;11.43;79.50
60258;BME280;46115;44.484;11.314;2023-12-29T23:54:45;100763.75;;;10.85;82.09
60258;BME280;46115;44.484;11.314;2023-12-29T23:58:47;100771.53;;;11.44;79.37
